首页
METAR-TAF:

METAR-TAF

机场 :

Geilenkirchen, 德国

纬度: 50-57-39N, 经度: 006-2-33E, 海拔: 90米

当前天气观测

该预报发布于38分钟前的13:50 UTC
风速6节,风向西北
温度 23°C
湿度 36%
气压 1017 hPa
能见度10公里或以上
1500米以下无云,无积雨云

METAR: ETNG 041350Z 32006KT CAVOK 23/07 Q1017 NOSIG

时间: 16:28 (14:28 UTC)

预报

该预报发布于3小时和28分钟前的11:00 UTC
预报有效从04日的 12点(UTC)到 05日的 03点(UTC)
风速7节,风向西转西北,有时为15节阵风
能见度10公里或以上
多云层高于3500英尺
成为
从 04日的 12点(UTC)到 04日的 13点(UTC)
能见度10公里或以上
1500米以下无云,无积雨云
成为
从 04日的 17点(UTC)到 04日的 19点(UTC)
风速3节,风向多变

TAF: ETNG 041100Z 0412/0503 29007G15KT 9999 BKN035 BECMG 0412/0413 CAVOK BECMG 0417/0419 VRB03KT

超过4000个机场的气象观测和天气预报(METAR&TAF报告)。

可查询的气象台以黄色和红色小点在地图上表示。

将鼠标移到小点上方,可查看气象台名称。

然后点击查看天气观测和预报。

如需切换地图:点击带黑十字的绿色按钮放大地图;点击带横线的绿色按钮缩小地图;或者点击绿色箭头查看邻近地区的地图。


METAR-TAF: